PHOENIX SKY HARBOR INTL

KPHX (PHX)
Phoenix, Arizona
Towered

Vatsim Metar:
KPHX 311651Z 36003KT 10SM BKN250 35/07 A2983 RMK AO2 SLP078 T03500072

No ATC Online

Traffic

Inbound:
Ident
Type
Name
ETA
Phase
NKS1
A321/L
Michael Grimm KSEA
17:20 Z
Descent
SWA1482
B738
Jeffrey Vlahos KBOS
Boarding
AAL814
A321/L
Matt Harpt KBIL
21:39 Z
Climb

Outbound:
None